Time;durP1;ratioP1;P1;durP2;ratioP2;P2;SDS_P1;SDS_P2;PMS_P1;PMS_P2;Temp;Humidity;BMP_temperature;BMP_pressure;BME280_temperature;BME280_humidity;BME280_pressure;Samples;Min_cycle;Max_cycle;Signal;HPM_P1;HPM_P2
2022/06/10 00:00:30;;;;;;;18.73;14.88;;;16.70;99.90;;;;;;5247993;28;20028;-74
2022/06/10 00:03:01;;;;;;;23.15;14.73;;;16.80;99.90;;;;;;5248143;28;20113;-74
2022/06/10 00:05:36;;;;;;;20.90;14.32;;;16.80;99.90;;;;;;5230109;28;20021;-75
2022/06/10 00:08:09;;;;;;;18.67;14.52;;;16.80;99.90;;;;;;5248180;28;20456;-74
2022/06/10 00:10:40;;;;;;;24.52;14.85;;;16.50;99.90;;;;;;5248180;28;20017;-75
2022/06/10 00:13:12;;;;;;;22.88;16.95;;;16.30;99.90;;;;;;5248077;28;20537;-75
2022/06/10 00:15:43;;;;;;;25.88;19.63;;;16.30;99.90;;;;;;5248012;28;20070;-74
2022/06/10 00:18:15;;;;;;;22.08;18.45;;;16.20;99.90;;;;;;5248042;28;20108;-74
2022/06/10 00:20:46;;;;;;;26.13;20.02;;;16.20;99.90;;;;;;5247874;28;20060;-74
2022/06/10 00:23:17;;;;;;;33.20;20.40;;;16.20;99.90;;;;;;5229798;28;20089;-75
2022/06/10 00:25:48;;;;;;;26.63;19.02;;;16.30;99.90;;;;;;5247991;28;20032;-74
2022/06/10 00:28:19;;;;;;;32.88;20.55;;;16.60;99.90;;;;;;5247747;28;20028;-75
2022/06/10 00:30:50;;;;;;;27.95;20.63;;;16.60;99.90;;;;;;5248237;28;20048;-74
2022/06/10 00:33:21;;;;;;;22.33;18.08;;;16.70;99.90;;;;;;5247896;28;20035;-75
2022/06/10 00:35:55;;;;;;;27.75;20.05;;;16.40;99.90;;;;;;5251650;28;20024;-75
2022/06/10 00:38:30;;;;;;;27.40;18.20;;;16.60;99.90;;;;;;5252849;28;20089;-75
2022/06/10 00:41:08;;;;;;;21.63;17.90;;;16.70;99.90;;;;;;5234749;28;20483;-75
2022/06/10 00:43:51;;;;;;;19.38;16.48;;;16.50;99.90;;;;;;5234652;28;20037;-75
2022/06/10 00:46:25;;;;;;;25.45;17.25;;;16.40;99.90;;;;;;5259023;28;20024;-75
2022/06/10 00:48:58;;;;;;;25.67;18.83;;;16.30;99.90;;;;;;5254359;28;20539;-75
2022/06/10 00:51:45;;;;;;;26.85;17.02;;;16.40;99.90;;;;;;5272803;28;20527;-74
2022/06/10 00:54:35;;;;;;;30.50;19.67;;;16.50;99.90;;;;;;5272372;28;20044;-74
2022/06/10 00:57:19;;;;;;;26.17;19.17;;;16.20;99.90;;;;;;5264114;28;20467;-74
2022/06/10 01:00:09;;;;;;;32.80;19.83;;;16.20;99.90;;;;;;5251793;28;20082;-74
2022/06/10 01:02:40;;;;;;;;;;;16.30;99.90;;;;;;5233986;28;20688;-74
2022/06/10 01:05:15;;;;;;;25.52;17.77;;;16.50;99.90;;;;;;5251401;28;19911;-74
2022/06/10 01:07:50;;;;;;;32.85;18.85;;;16.30;99.90;;;;;;5233612;28;20021;-73
2022/06/10 01:10:22;;;;;;;29.83;19.27;;;16.30;99.90;;;;;;5251207;28;20085;-74
2022/06/10 01:12:53;;;;;;;28.73;18.92;;;16.20;99.90;;;;;;5251145;28;20452;-74
2022/06/10 01:15:41;;;;;;;23.02;17.85;;;16.10;99.90;;;;;;5233336;28;20029;-74
2022/06/10 01:18:31;;;;;;;24.50;19.80;;;16.20;99.90;;;;;;5251223;28;20032;-74
2022/06/10 01:21:26;;;;;;;29.40;20.48;;;16.20;99.90;;;;;;5251293;28;20033;-75
2022/06/10 01:24:20;;;;;;;25.17;20.83;;;16.20;99.90;;;;;;5250787;28;20049;-75
2022/06/10 01:30:19;;;;;;;25.65;19.90;;;16.00;99.90;;;;;;5251381;28;20032;-75
2022/06/10 01:32:53;;;;;;;36.55;22.33;;;16.20;99.90;;;;;;5265433;28;20024;-74
2022/06/10 01:35:36;;;;;;;26.23;20.13;;;16.10;99.90;;;;;;5263103;28;20028;-74
2022/06/10 01:38:18;;;;;;;33.50;19.45;;;16.10;99.90;;;;;;5251089;28;20463;-75
2022/06/10 01:41:00;;;;;;;25.73;19.50;;;16.20;99.90;;;;;;5250650;28;20531;-74
2022/06/10 01:44:02;;;;;;;26.27;19.02;;;16.20;99.90;;;;;;5250702;28;20033;-75
2022/06/10 01:46:37;;;;;;;26.92;18.17;;;16.10;99.90;;;;;;5250086;28;20024;-75
2022/06/10 01:50:09;;;;;;;29.55;18.33;;;16.20;99.90;;;;;;5250736;28;20456;-75
2022/06/10 01:52:51;;;;;;;22.17;18.27;;;16.20;99.90;;;;;;5142847;28;20047;-75
2022/06/10 01:55:32;;;;;;;28.38;22.60;;;16.10;99.90;;;;;;5250587;28;20028;-75
2022/06/10 01:58:24;;;;;;;26.25;19.77;;;16.00;99.90;;;;;;5245565;28;20028;-74
2022/06/10 02:01:05;;;;;;;30.08;20.13;;;16.20;99.90;;;;;;5250515;28;20373;-75
2022/06/10 02:03:55;;;;;;;30.27;20.63;;;15.90;99.90;;;;;;5250279;28;20039;-75
2022/06/10 02:06:36;;;;;;;29.40;22.13;;;15.80;99.90;;;;;;5250209;28;20037;-74
2022/06/10 02:09:17;;;;;;;28.30;21.98;;;15.80;99.90;;;;;;5250502;28;20055;-75
2022/06/10 02:11:54;;;;;;;26.38;21.48;;;15.90;99.90;;;;;;5250282;28;20027;-74
2022/06/10 02:14:37;;;;;;;25.20;19.90;;;16.20;99.90;;;;;;5249508;28;20155;-75
2022/06/10 02:17:11;;;;;;;29.35;19.83;;;16.00;99.90;;;;;;5234810;28;20100;-75
2022/06/10 02:19:54;;;;;;;32.80;19.50;;;16.00;99.90;;;;;;5271060;28;20116;-74
2022/06/10 02:22:39;;;;;;;27.88;22.10;;;16.10;99.90;;;;;;5229131;28;20021;-74
2022/06/10 02:25:22;;;;;;;26.17;20.30;;;15.80;99.90;;;;;;5243947;28;20040;-74
2022/06/10 02:27:58;;;;;;;22.42;19.08;;;15.80;99.90;;;;;;5229480;28;20338;-74
2022/06/10 02:30:51;;;;;;;26.83;19.27;;;15.70;99.90;;;;;;5249575;28;20129;-74
2022/06/10 02:33:22;;;;;;;25.67;19.50;;;15.80;99.90;;;;;;5231918;28;20093;-75
2022/06/10 02:52:34;;;;;;;30.13;23.00;;;15.90;99.90;;;;;;5308693;27;20419;-82
2022/06/10 02:55:06;;;;;;;25.83;20.67;;;16.00;99.90;;;;;;5290198;28;20027;-81
2022/06/10 03:03:51;;;;;;;32.45;20.92;;;16.20;99.90;;;;;;5287307;28;20402;-80
2022/06/10 03:06:42;;;;;;;29.90;20.73;;;16.10;99.90;;;;;;5269182;28;20024;-83
2022/06/10 03:09:26;;;;;;;23.95;19.75;;;16.10;99.90;;;;;;5287334;28;20095;-79
2022/06/10 03:12:11;;;;;;;25.13;20.27;;;16.20;99.90;;;;;;5287118;28;20023;-81
2022/06/10 03:15:29;;;;;;;25.77;20.33;;;16.40;99.90;;;;;;5287059;28;20047;-79
2022/06/10 03:18:08;;;;;;;24.13;19.17;;;16.50;99.90;;;;;;5287280;28;20142;-79
2022/06/10 03:20:47;;;;;;;22.63;19.15;;;16.60;99.90;;;;;;5286856;28;20038;-77
2022/06/10 03:23:35;;;;;;;21.80;19.55;;;16.60;99.90;;;;;;5303490;28;20034;-79
2022/06/10 03:26:17;;;;;;;26.35;20.63;;;16.70;99.90;;;;;;5308315;27;20051;-81
2022/06/10 03:28:54;;;;;;;22.45;19.63;;;16.80;99.90;;;;;;5308089;28;20070;-77
2022/06/10 03:31:36;;;;;;;31.50;21.55;;;16.90;99.90;;;;;;5306715;28;20031;-79
2022/06/10 03:34:33;;;;;;;30.42;24.42;;;16.90;99.90;;;;;;5308289;27;20045;-79
2022/06/10 03:37:11;;;;;;;28.88;22.23;;;16.90;99.90;;;;;;5291914;28;20512;-82
2022/06/10 03:39:41;;;;;;;29.48;21.88;;;16.80;99.90;;;;;;5304403;28;20031;-81
2022/06/10 03:42:18;;;;;;;27.08;20.77;;;16.80;99.90;;;;;;5303201;28;20040;-81
2022/06/10 03:44:52;;;;;;;29.85;21.70;;;16.80;99.90;;;;;;5303901;28;20550;-81
2022/06/10 03:47:30;;;;;;;27.20;21.83;;;16.80;99.90;;;;;;5305934;28;20032;-81
2022/06/10 03:50:09;;;;;;;31.95;24.45;;;16.90;99.90;;;;;;5307007;28;20040;-81
2022/06/10 03:52:41;;;;;;;28.77;22.02;;;16.90;99.90;;;;;;5297264;28;20028;-81
2022/06/10 03:55:17;;;;;;;26.83;21.85;;;16.90;99.90;;;;;;5290485;28;20360;-81
2022/06/10 03:57:48;;;;;;;32.72;22.88;;;16.90;99.90;;;;;;5292058;28;20037;-81
2022/06/10 04:00:26;;;;;;;25.67;21.80;;;16.80;99.90;;;;;;5290816;28;20032;-81
2022/06/10 04:02:57;;;;;;;28.65;22.20;;;16.90;99.90;;;;;;5292899;27;20028;-81
2022/06/10 04:05:27;;;;;;;27.83;21.98;;;17.00;99.90;;;;;;5290615;28;20106;-81
2022/06/10 04:07:58;;;;;;;29.63;23.33;;;17.10;99.90;;;;;;5290630;28;20024;-81
2022/06/10 04:10:30;;;;;;;26.88;20.98;;;17.10;99.90;;;;;;5290933;28;20422;-81
2022/06/10 04:13:01;;;;;;;25.25;21.60;;;17.00;99.90;;;;;;5291201;28;20027;-81
2022/06/10 04:15:32;;;;;;;26.48;21.75;;;17.10;99.90;;;;;;5290983;28;20020;-81
2022/06/10 04:18:04;;;;;;;26.83;21.15;;;17.20;99.90;;;;;;5292438;28;20019;-81
2022/06/10 04:20:37;;;;;;;29.25;21.92;;;17.10;99.90;;;;;;5290975;28;20035;-81
2022/06/10 04:23:09;;;;;;;25.00;21.73;;;17.30;99.90;;;;;;5290771;28;20024;-81
2022/06/10 04:25:41;;;;;;;35.97;25.25;;;17.30;99.90;;;;;;5291162;28;20409;-81
2022/06/10 04:28:13;;;;;;;28.70;23.55;;;17.20;99.90;;;;;;5292290;28;20072;-79
2022/06/10 04:30:47;;;;;;;28.95;22.70;;;17.40;99.90;;;;;;5292214;28;20119;-80
2022/06/10 04:33:19;;;;;;;29.70;23.48;;;17.40;99.90;;;;;;5290564;28;20058;-79
2022/06/10 04:35:51;;;;;;;30.98;25.05;;;17.50;99.90;;;;;;5290795;28;20031;-80
2022/06/10 04:38:22;;;;;;;25.27;22.67;;;17.50;99.90;;;;;;5290807;28;20023;-79
2022/06/10 04:40:54;;;;;;;31.42;22.17;;;17.70;99.90;;;;;;5291919;28;20070;-81
2022/06/10 04:43:24;;;;;;;28.02;21.58;;;17.60;99.90;;;;;;5291794;28;20019;-81
2022/06/10 04:45:57;;;;;;;26.48;21.02;;;17.80;99.90;;;;;;5291979;28;20016;-81
2022/06/10 04:48:28;;;;;;;29.90;23.08;;;17.70;99.90;;;;;;5290602;28;20023;-81
2022/06/10 04:50:59;;;;;;;28.15;22.15;;;17.50;99.90;;;;;;5291429;28;20116;-81
2022/06/10 04:53:30;;;;;;;27.50;21.50;;;17.80;99.90;;;;;;5290495;28;20020;-79
2022/06/10 04:56:01;;;;;;;25.55;22.10;;;17.80;99.90;;;;;;5291711;28;20027;-80
2022/06/10 04:58:32;;;;;;;26.90;22.05;;;18.00;99.90;;;;;;5291579;28;20060;-79
2022/06/10 05:01:02;;;;;;;26.73;21.25;;;17.90;99.90;;;;;;5290202;28;20039;-80
2022/06/10 05:03:34;;;;;;;27.85;20.73;;;18.10;99.90;;;;;;5289122;28;20459;-79
2022/06/10 05:06:05;;;;;;;29.65;20.25;;;18.30;99.90;;;;;;5291549;28;20019;-81
2022/06/10 05:08:36;;;;;;;23.58;20.58;;;18.20;99.90;;;;;;5291094;28;20027;-79
2022/06/10 05:11:07;;;;;;;26.83;22.20;;;18.40;99.90;;;;;;5291064;28;20020;-80
2022/06/10 05:13:37;;;;;;;28.25;23.45;;;18.60;99.90;;;;;;5289658;28;20520;-79
2022/06/10 05:16:10;;;;;;;28.92;23.83;;;18.60;99.90;;;;;;5289929;28;20027;-80
2022/06/10 05:18:41;;;;;;;30.02;23.73;;;18.50;99.90;;;;;;5290030;28;20024;-81
2022/06/10 05:21:12;;;;;;;30.40;23.20;;;18.40;99.90;;;;;;5291099;28;20402;-81
2022/06/10 05:23:45;;;;;;;27.55;23.02;;;18.60;99.90;;;;;;5289742;28;20024;-82
2022/06/10 05:26:16;;;;;;;28.83;22.92;;;18.70;99.90;;;;;;5291077;28;20028;-81
2022/06/10 05:28:50;;;;;;;24.88;22.25;;;18.80;99.90;;;;;;5289759;28;20019;-79
2022/06/10 05:31:20;;;;;;;27.45;23.27;;;19.00;99.90;;;;;;5289729;28;20374;-79
2022/06/10 05:36:40;;;;;;;28.48;24.17;;;19.30;99.90;;;;;;5290966;28;20058;-79
2022/06/10 05:39:11;;;;;;;25.42;22.73;;;19.50;99.90;;;;;;5289637;28;20055;-80
2022/06/10 05:44:39;;;;;;;24.43;21.83;;;19.60;99.90;;;;;;5291225;28;20076;-79
2022/06/10 05:47:13;;;;;;;33.45;23.77;;;19.70;99.90;;;;;;5289408;28;20032;-80
2022/06/10 05:49:47;;;;;;;28.38;23.50;;;20.00;99.90;;;;;;5290524;28;20028;-79
2022/06/10 05:52:20;;;;;;;26.23;22.30;;;20.10;99.90;;;;;;5290359;28;20124;-80
2022/06/10 05:54:54;;;;;;;31.60;28.00;;;20.20;99.90;;;;;;5289245;28;20059;-80
2022/06/10 05:57:25;;;;;;;33.47;27.33;;;20.20;99.90;;;;;;5290561;28;20035;-80
2022/06/10 05:59:55;;;;;;;29.27;25.65;;;20.30;99.90;;;;;;5290434;28;20344;-80
2022/06/10 06:02:26;;;;;;;28.65;25.17;;;20.20;99.90;;;;;;5290321;28;20028;-80
2022/06/10 06:04:58;;;;;;;28.30;23.17;;;20.50;99.90;;;;;;5290183;28;20624;-80
2022/06/10 06:07:29;;;;;;;27.08;23.77;;;21.00;99.90;;;;;;5290318;28;20128;-80
2022/06/10 06:10:00;;;;;;;29.75;22.70;;;21.40;99.90;;;;;;5290320;28;20024;-79
2022/06/10 06:12:30;;;;;;;23.10;20.17;;;20.80;99.90;;;;;;5290134;28;20096;-80
2022/06/10 06:15:01;;;;;;;24.50;21.05;;;21.00;99.90;;;;;;5290037;28;20019;-81
2022/06/10 06:17:32;;;;;;;22.92;20.50;;;21.20;99.90;;;;;;5290203;28;20472;-80
2022/06/10 06:20:04;;;;;;;25.08;21.80;;;21.20;99.90;;;;;;5290041;28;20031;-81
2022/06/10 06:22:35;;;;;;;22.67;19.50;;;21.60;99.90;;;;;;5288754;28;20027;-80
2022/06/10 06:25:06;;;;;;;23.17;18.02;;;21.70;99.90;;;;;;5288486;28;20488;-80
2022/06/10 06:27:37;;;;;;;20.83;16.58;;;22.00;99.90;;;;;;5290082;28;20031;-80
2022/06/10 06:30:14;;;;;;;20.95;18.55;;;21.80;99.90;;;;;;5288735;28;20027;-80
2022/06/10 06:32:45;;;;;;;24.67;18.67;;;22.20;99.90;;;;;;5288829;28;20028;-80
2022/06/10 06:35:16;;;;;;;26.90;19.88;;;22.30;99.90;;;;;;5288797;28;20019;-80
2022/06/10 06:37:46;;;;;;;22.42;18.48;;;22.30;99.90;;;;;;5288677;28;20030;-80
2022/06/10 06:40:18;;;;;;;22.77;18.70;;;22.50;99.90;;;;;;5289873;28;20467;-80
2022/06/10 06:42:49;;;;;;;42.45;34.33;;;22.60;99.90;;;;;;5289739;28;20046;-80
2022/06/10 06:45:20;;;;;;;44.92;40.25;;;22.00;99.90;;;;;;5289880;28;20099;-80
2022/06/10 06:47:51;;;;;;;32.60;28.48;;;22.10;99.90;;;;;;5288497;28;20076;-80
2022/06/10 06:50:27;;;;;;;24.23;21.63;;;22.30;99.90;;;;;;5289545;28;20069;-80
2022/06/10 06:52:58;;;;;;;24.48;19.05;;;22.50;99.90;;;;;;5289789;28;20035;-80
2022/06/10 06:55:29;;;;;;;22.65;20.25;;;22.60;99.90;;;;;;5289825;28;20023;-80
2022/06/10 06:57:59;;;;;;;27.20;21.02;;;22.30;99.90;;;;;;5289468;28;20039;-80
2022/06/10 07:00:30;;;;;;;21.50;18.33;;;22.50;99.90;;;;;;5288351;28;20031;-80
2022/06/10 07:03:02;;;;;;;21.25;17.92;;;22.70;99.90;;;;;;5289519;28;20031;-80
2022/06/10 07:05:35;;;;;;;26.90;19.70;;;22.90;99.90;;;;;;5288418;28;20032;-80
2022/06/10 07:08:06;;;;;;;30.50;24.42;;;22.90;99.90;;;;;;5289635;28;20025;-80
2022/06/10 07:10:37;;;;;;;36.72;29.83;;;22.90;99.90;;;;;;5289563;28;20023;-80
2022/06/10 07:13:07;;;;;;;32.67;25.08;;;23.20;99.90;;;;;;5289478;28;20356;-80
2022/06/10 07:15:42;;;;;;;39.03;27.55;;;23.10;99.90;;;;;;5289661;28;20038;-80
2022/06/10 07:18:13;;;;;;;30.70;24.80;;;23.10;99.90;;;;;;5289610;28;20474;-80
2022/06/10 07:20:44;;;;;;;30.98;24.67;;;23.40;99.90;;;;;;5287962;28;20071;-80
2022/06/10 07:23:17;;;;;;;29.65;26.45;;;23.80;99.90;;;;;;5289329;28;20028;-80
2022/06/10 07:25:48;;;;;;;35.85;26.70;;;24.30;99.90;;;;;;5289466;28;20425;-80
2022/06/10 07:28:18;;;;;;;30.60;25.42;;;24.80;99.90;;;;;;5291139;28;20020;-80
2022/06/10 07:30:49;;;;;;;34.53;26.17;;;24.40;99.90;;;;;;5293403;28;20360;-80
2022/06/10 07:33:21;;;;;;;28.63;23.95;;;24.30;99.90;;;;;;5293370;28;20027;-81
2022/06/10 07:35:52;;;;;;;39.00;25.88;;;24.60;99.90;;;;;;5291979;28;20020;-81
2022/06/10 07:38:24;;;;;;;31.30;23.83;;;24.70;99.90;;;;;;5292005;28;20027;-82
2022/06/10 07:43:44;;;;;;;27.95;17.48;;;24.30;99.90;;;;;;5293167;28;20586;-80
2022/06/10 07:46:18;;;;;;;19.17;15.30;;;24.10;99.90;;;;;;5293203;28;20513;-81
2022/06/10 07:48:49;;;;;;;17.00;12.18;;;24.90;99.90;;;;;;5291763;28;20023;-81
2022/06/10 07:51:20;;;;;;;13.10;9.90;;;25.00;99.90;;;;;;5291335;28;20517;-80
2022/06/10 07:53:51;;;;;;;19.23;10.23;;;24.80;99.90;;;;;;5293014;28;20100;-81
2022/06/10 07:56:22;;;;;;;18.50;9.30;;;25.40;99.90;;;;;;5292930;28;20023;-81
2022/06/10 07:58:53;;;;;;;15.43;10.93;;;25.20;99.90;;;;;;5292864;28;20024;-80
2022/06/10 08:01:25;;;;;;;11.50;9.77;;;25.00;99.90;;;;;;5292638;28;20382;-82
2022/06/10 08:03:57;;;;;;;10.73;8.90;;;25.70;99.90;;;;;;5291409;28;20047;-81
2022/06/10 08:06:29;;;;;;;25.15;8.63;;;25.80;99.90;;;;;;5292790;28;20478;-81
2022/06/10 08:09:01;;;;;;;12.82;9.15;;;25.00;99.90;;;;;;5291402;28;20053;-81
2022/06/10 08:11:31;;;;;;;12.65;10.10;;;25.00;99.90;;;;;;5292520;28;20030;-81
2022/06/10 08:14:03;;;;;;;19.10;9.93;;;25.00;99.90;;;;;;5292593;28;20023;-81
2022/06/10 08:16:35;;;;;;;10.88;9.45;;;24.80;99.90;;;;;;5291225;28;20371;-81
2022/06/10 08:19:06;;;;;;;15.73;10.07;;;24.70;99.90;;;;;;5291245;28;20348;-82
2022/06/10 08:24:26;;;;;;;16.23;10.20;;;24.60;99.90;;;;;;5292750;28;20035;-81
2022/06/10 08:26:57;;;;;;;17.70;10.98;;;24.70;99.90;;;;;;5292311;28;20763;-81
2022/06/10 08:29:27;;;;;;;13.15;9.43;;;24.80;99.90;;;;;;5292238;28;20030;-81
2022/06/10 08:31:58;;;;;;;21.85;10.02;;;24.80;99.90;;;;;;5292193;28;20023;-82
2022/06/10 08:34:29;;;;;;;12.82;10.68;;;24.50;99.90;;;;;;5290968;28;20092;-81
2022/06/10 08:37:01;;;;;;;16.08;10.68;;;24.30;99.90;;;;;;5292185;28;20129;-83
2022/06/10 08:39:32;;;;;;;14.48;10.25;;;24.50;99.90;;;;;;5292082;28;20355;-81
2022/06/10 08:42:24;;;;;;;14.00;10.05;;;24.40;99.90;;;;;;5291615;28;20035;-83
2022/06/10 08:44:57;;;;;;;16.38;10.27;;;24.40;99.90;;;;;;5290805;28;20412;-82
2022/06/10 08:47:31;;;;;;;14.40;10.93;;;24.50;99.90;;;;;;5291940;28;20027;-82
2022/06/10 08:50:19;;;;;;;12.90;10.43;;;24.50;99.90;;;;;;5290283;28;20123;-82
2022/06/10 08:53:15;;;;;;;15.97;10.30;;;24.30;99.90;;;;;;5291791;28;20032;-82
2022/06/10 08:55:54;;;;;;;14.57;9.80;;;24.40;99.90;;;;;;5291871;28;20031;-82
2022/06/10 08:58:32;;;;;;;16.10;10.57;;;24.40;99.90;;;;;;5291740;28;20030;-82
2022/06/10 09:01:12;;;;;;;14.27;9.93;;;24.60;99.90;;;;;;5291573;28;20072;-82
2022/06/10 09:03:57;;;;;;;11.82;9.95;;;24.30;99.90;;;;;;5290354;28;20023;-82
2022/06/10 09:06:48;;;;;;;12.88;9.75;;;24.10;99.90;;;;;;5291611;28;20459;-82
2022/06/10 09:09:21;;;;;;;11.93;9.82;;;24.30;99.90;;;;;;5291488;28;20020;-82
2022/06/10 09:12:01;;;;;;;14.95;10.90;;;24.20;99.90;;;;;;5291416;28;20028;-84
2022/06/10 09:14:32;;;;;;;15.68;12.68;;;24.20;99.90;;;;;;5291456;28;20103;-82
2022/06/10 09:17:35;;;;;;;16.85;12.80;;;24.30;99.90;;;;;;5291261;27;20519;-82
2022/06/10 09:20:31;;;;;;;20.58;12.68;;;24.30;99.90;;;;;;5291112;28;20035;-82
2022/06/10 09:23:12;;;;;;;20.95;14.20;;;24.50;99.90;;;;;;5290782;28;20074;-82
2022/06/10 09:25:46;;;;;;;15.90;13.85;;;23.90;99.90;;;;;;5291080;28;20489;-82
2022/06/10 09:28:17;;;;;;;20.88;13.02;;;24.00;99.90;;;;;;5289809;28;20024;-82
2022/06/10 09:31:03;;;;;;;20.08;13.63;;;24.00;99.90;;;;;;5289401;28;20027;-82
2022/06/10 09:33:59;;;;;;;14.35;12.27;;;24.00;99.90;;;;;;5289710;28;20062;-82
2022/06/10 09:36:38;;;;;;;19.88;12.95;;;24.10;99.90;;;;;;5289617;28;20479;-82
2022/06/10 09:40:35;;;;;;;;;;;24.00;99.90;;;;;;5291324;28;20487;-82
2022/06/10 09:42:26;;;;;;;17.52;13.10;;;24.00;99.90;;;;;;5290513;28;19911;-82
2022/06/10 09:45:12;;;;;;;21.75;13.30;;;24.00;99.90;;;;;;5290831;28;20528;-82
2022/06/10 09:48:22;;;;;;;20.17;13.80;;;23.80;99.90;;;;;;5290742;28;20035;-82
2022/06/10 09:51:05;;;;;;;15.65;13.60;;;23.70;99.90;;;;;;5255401;28;20043;-84
2022/06/10 09:54:13;;;;;;;23.33;13.70;;;23.80;99.90;;;;;;5289324;28;20034;-82
2022/06/10 09:57:18;;;;;;;21.60;12.27;;;24.10;99.90;;;;;;5289265;28;20110;-85
2022/06/10 09:59:52;;;;;;;18.20;13.50;;;24.10;99.90;;;;;;5290464;28;20045;-83
2022/06/10 10:02:45;;;;;;;17.70;12.63;;;24.80;99.90;;;;;;5290231;28;20024;-83
2022/06/10 10:05:53;;;;;;;18.13;13.38;;;25.80;99.90;;;;;;5290218;28;20509;-85
2022/06/10 10:09:09;;;;;;;14.95;13.27;;;25.20;99.90;;;;;;5288932;28;20037;-82
2022/06/10 10:12:25;;;;;;;17.95;11.90;;;24.80;99.90;;;;;;5290187;28;20023;-82
2022/06/10 10:15:15;;;;;;;16.75;12.70;;;25.20;99.90;;;;;;5266251;28;20043;-82
2022/06/10 10:18:27;;;;;;;19.17;13.05;;;25.60;99.90;;;;;;5288991;28;20104;-84
2022/06/10 10:21:08;;;;;;;16.10;13.40;;;26.00;99.90;;;;;;5289947;28;20483;-83
2022/06/10 10:23:49;;;;;;;16.88;13.48;;;25.90;99.90;;;;;;5288720;28;20051;-85
2022/06/10 10:26:28;;;;;;;20.38;13.65;;;25.30;99.90;;;;;;5288878;28;20409;-85
2022/06/10 10:29:04;;;;;;;17.73;12.50;;;25.60;99.90;;;;;;5288775;28;20420;-83
2022/06/10 10:31:41;;;;;;;18.30;13.82;;;25.10;99.90;;;;;;5288697;28;20032;-83
2022/06/10 10:34:19;;;;;;;25.08;15.15;;;25.10;99.90;;;;;;5290059;28;20024;-83
2022/06/10 10:36:54;;;;;;;20.30;14.90;;;24.80;99.90;;;;;;5290021;28;20411;-83
2022/06/10 10:39:35;;;;;;;21.05;16.40;;;24.60;99.90;;;;;;5288732;28;20022;-83
2022/06/10 10:42:19;;;;;;;20.48;15.07;;;24.30;99.90;;;;;;5289671;28;20035;-83
2022/06/10 10:45:02;;;;;;;20.40;15.80;;;24.40;99.90;;;;;;5288577;28;20467;-86
2022/06/10 10:47:34;;;;;;;26.00;17.10;;;24.60;99.90;;;;;;5289796;28;20054;-83
2022/06/10 10:50:05;;;;;;;24.20;14.80;;;24.60;99.90;;;;;;5289509;28;20482;-83
2022/06/10 10:52:36;;;;;;;28.23;16.38;;;24.80;99.90;;;;;;5289755;28;20035;-86
2022/06/10 10:55:12;;;;;;;25.73;15.48;;;24.90;99.90;;;;;;5289719;28;20441;-83
2022/06/10 10:58:04;;;;;;;21.45;15.30;;;24.80;99.90;;;;;;5288402;28;20076;-83
2022/06/10 11:00:44;;;;;;;27.00;15.77;;;25.10;99.90;;;;;;5288442;28;20483;-83
2022/06/10 11:03:43;;;;;;;15.95;14.25;;;24.90;99.90;;;;;;5291321;28;20055;-83
2022/06/10 11:06:32;;;;;;;15.10;13.30;;;24.70;99.90;;;;;;5292585;28;20028;-84
2022/06/10 11:09:16;;;;;;;14.10;12.68;;;25.00;99.90;;;;;;5293998;28;20027;-83
2022/06/10 11:11:49;;;;;;;19.25;12.35;;;24.70;99.90;;;;;;5293741;28;20412;-86
2022/06/10 11:14:38;;;;;;;20.20;13.48;;;24.90;99.90;;;;;;5293715;28;20103;-84
2022/06/10 11:17:12;;;;;;;19.67;13.40;;;24.80;99.90;;;;;;5293780;28;20019;-85
2022/06/10 11:19:49;;;;;;;19.45;13.77;;;24.30;99.90;;;;;;5292279;28;20038;-83
2022/06/10 11:22:34;;;;;;;23.05;14.45;;;24.30;99.90;;;;;;5292138;28;20054;-85
2022/06/10 11:25:16;;;;;;;19.95;14.07;;;24.10;99.90;;;;;;5293767;28;20367;-86
2022/06/10 11:27:50;;;;;;;20.40;13.52;;;24.10;99.90;;;;;;5293574;28;20103;-83
2022/06/10 11:30:24;;;;;;;20.10;13.35;;;24.10;99.90;;;;;;5292190;28;20024;-83
2022/06/10 11:33:02;;;;;;;20.15;15.10;;;24.10;99.90;;;;;;5293386;28;20063;-83
2022/06/10 11:35:57;;;;;;;23.05;14.75;;;23.90;99.90;;;;;;5293177;28;20028;-83
2022/06/10 11:38:30;;;;;;;19.73;14.52;;;24.00;99.90;;;;;;5293370;28;20038;-83
2022/06/10 11:41:22;;;;;;;21.30;14.20;;;23.90;99.90;;;;;;5291677;28;20049;-83
2022/06/10 11:44:19;;;;;;;19.27;13.15;;;23.70;99.90;;;;;;5291920;28;20024;-83
2022/06/10 11:47:09;;;;;;;20.90;11.73;;;23.60;99.90;;;;;;5293173;28;20459;-83
2022/06/10 11:49:56;;;;;;;15.65;11.75;;;23.40;99.90;;;;;;5291738;28;20493;-83
2022/06/10 11:52:49;;;;;;;22.02;12.27;;;23.20;99.90;;;;;;5292618;28;20058;-83
2022/06/10 11:55:28;;;;;;;17.00;12.30;;;23.50;99.90;;;;;;5293115;28;20375;-83
2022/06/10 12:01:16;;;;;;;17.30;11.52;;;23.70;99.90;;;;;;5293022;28;20034;-83
2022/06/10 12:04:00;;;;;;;16.35;11.82;;;23.30;99.90;;;;;;5291537;28;20371;-86
2022/06/10 12:06:36;;;;;;;17.02;11.82;;;23.60;99.90;;;;;;5292885;28;20417;-83
2022/06/10 12:09:29;;;;;;;14.18;10.80;;;23.50;99.90;;;;;;5292764;28;20450;-83
2022/06/10 12:12:17;;;;;;;14.90;11.10;;;23.70;99.90;;;;;;5291125;28;20023;-83
2022/06/10 12:14:54;;;;;;;17.23;11.20;;;23.70;99.90;;;;;;5292776;28;20055;-85
2022/06/10 12:17:33;;;;;;;15.98;10.15;;;23.50;99.90;;;;;;5293599;27;20024;-87
2022/06/10 12:20:13;;;;;;;;;;;23.80;99.90;;;;;;5293260;28;20402;-84
2022/06/10 12:22:44;;;;;;;;;;;23.70;99.90;;;;;;5293298;28;19953;-83
2022/06/10 12:25:24;;;;;;;13.80;10.57;;;23.80;99.90;;;;;;5292880;28;19908;-84
2022/06/10 12:28:30;;;;;;;14.90;10.40;;;23.70;99.90;;;;;;5285462;28;20032;-84
2022/06/10 12:31:28;;;;;;;15.88;10.90;;;23.60;99.90;;;;;;5278520;28;20023;-83
2022/06/10 12:34:23;;;;;;;13.73;11.13;;;23.80;99.90;;;;;;5276204;28;20418;-84
2022/06/10 12:36:58;;;;;;;20.10;12.32;;;23.60;99.90;;;;;;5278703;28;20028;-83
2022/06/10 12:39:48;;;;;;;16.88;12.30;;;23.70;99.90;;;;;;5281730;28;20356;-83
2022/06/10 12:42:25;;;;;;;15.50;11.40;;;23.70;99.90;;;;;;5273199;28;20556;-84
2022/06/10 12:44:58;;;;;;;16.35;11.48;;;23.70;99.90;;;;;;5281392;28;20020;-86
2022/06/10 12:47:37;;;;;;;16.92;11.23;;;23.50;99.90;;;;;;5292284;28;20208;-84
2022/06/10 12:50:21;;;;;;;13.23;10.52;;;23.50;99.90;;;;;;5291819;28;20031;-86
2022/06/10 12:53:10;;;;;;;15.93;10.90;;;23.50;99.90;;;;;;5292095;28;20028;-83
2022/06/10 12:55:51;;;;;;;18.33;11.55;;;23.50;99.90;;;;;;5276995;28;20629;-84
2022/06/10 12:58:37;;;;;;;14.73;10.50;;;23.30;99.90;;;;;;5271073;28;20085;-83
2022/06/10 13:01:19;;;;;;;16.17;10.90;;;23.30;99.90;;;;;;5283104;28;20118;-83
2022/06/10 13:03:59;;;;;;;15.93;10.52;;;23.40;99.90;;;;;;5290680;28;20024;-86
2022/06/10 13:06:44;;;;;;;13.15;9.82;;;23.50;99.90;;;;;;5290485;28;20042;-83
2022/06/10 13:09:18;;;;;;;13.40;10.93;;;23.60;99.90;;;;;;5290730;28;20080;-83
2022/06/10 13:12:08;;;;;;;16.88;10.07;;;23.50;99.90;;;;;;5290612;28;20501;-83
2022/06/10 13:14:44;;;;;;;17.00;11.35;;;23.60;99.90;;;;;;5290595;28;20060;-83
2022/06/10 13:17:26;;;;;;;13.05;11.25;;;23.50;99.90;;;;;;5291890;28;20474;-83
2022/06/10 13:19:57;;;;;;;14.95;11.68;;;23.40;99.90;;;;;;5291562;28;20077;-86
2022/06/10 13:22:38;;;;;;;13.45;11.07;;;23.30;99.90;;;;;;5291587;28;20036;-83
2022/06/10 13:25:09;;;;;;;22.02;11.50;;;23.20;99.90;;;;;;5268507;28;20098;-86
2022/06/10 13:27:45;;;;;;;12.38;10.68;;;23.10;99.90;;;;;;5270267;28;20111;-87
2022/06/10 13:30:29;;;;;;;17.73;12.13;;;23.10;99.90;;;;;;5270613;28;20061;-84
2022/06/10 13:33:11;;;;;;;17.33;11.23;;;23.00;99.90;;;;;;5268616;28;20417;-84
2022/06/10 13:35:44;;;;;;;15.15;13.52;;;22.80;99.90;;;;;;5268605;28;20016;-83
2022/06/10 13:38:21;;;;;;;21.00;16.05;;;22.80;99.90;;;;;;5269832;28;20024;-86
2022/06/10 13:41:48;;;;;;;19.13;16.65;;;22.60;99.90;;;;;;5268139;28;20063;-82
2022/06/10 13:43:49;;;;;;;31.77;18.33;;;22.70;99.90;;;;;;5269013;28;20406;-81
2022/06/10 13:46:27;;;;;;;23.63;19.05;;;22.80;99.90;;;;;;5269638;28;20038;-83
2022/06/10 13:49:45;;;;;;;20.70;18.05;;;22.90;99.90;;;;;;5269313;28;20026;-81
2022/06/10 13:52:35;;;;;;;21.52;18.52;;;22.70;99.90;;;;;;5269315;28;20083;-84
2022/06/10 13:55:29;;;;;;;19.48;17.33;;;22.50;99.90;;;;;;5269573;28;20039;-81
2022/06/10 13:58:03;;;;;;;23.42;18.30;;;22.40;99.90;;;;;;5269554;28;20414;-81
2022/06/10 14:00:41;;;;;;;22.70;19.48;;;22.70;99.90;;;;;;5269369;28;20417;-81
2022/06/10 14:03:28;;;;;;;23.60;19.63;;;22.50;99.90;;;;;;5269344;28;20421;-80
2022/06/10 14:06:04;;;;;;;25.38;21.75;;;22.50;99.90;;;;;;5269472;28;20024;-80